createdAt,value
2023-05-10T00:00:02.989Z,234.00
2023-05-10T00:01:03.014Z,233.46
2023-05-10T00:02:03.120Z,233.55
2023-05-10T00:03:03.114Z,235.18
2023-05-10T00:04:03.147Z,237.63
2023-05-10T00:05:03.147Z,242.06
2023-05-10T00:06:03.149Z,238.79
2023-05-10T00:07:03.198Z,239.06
2023-05-10T00:08:03.202Z,240.07
2023-05-10T00:09:03.224Z,238.29
2023-05-10T00:10:03.273Z,238.20
2023-05-10T00:11:03.279Z,237.72
2023-05-10T00:12:03.342Z,239.12
2023-05-10T00:13:03.377Z,238.37
2023-05-10T00:14:03.401Z,239.88
2023-05-10T00:15:03.459Z,242.24
2023-05-10T00:16:03.513Z,247.41
2023-05-10T00:17:03.527Z,249.59
2023-05-10T00:18:03.546Z,248.14
2023-05-10T00:19:03.588Z,246.13
2023-05-10T00:20:03.591Z,244.31
2023-05-10T00:21:03.667Z,239.38
2023-05-10T00:22:03.672Z,237.58
2023-05-10T00:23:03.688Z,235.02
2023-05-10T00:24:03.771Z,227.60
2023-05-10T00:25:03.772Z,224.93
2023-05-10T00:26:03.780Z,219.39
2023-05-10T00:27:03.836Z,215.95
2023-05-10T00:28:03.902Z,215.32
2023-05-10T00:29:03.937Z,217.22
2023-05-10T00:30:03.915Z,219.45
2023-05-10T00:31:03.954Z,228.05
2023-05-10T00:32:04.041Z,225.10
2023-05-10T00:33:04.079Z,230.96
2023-05-10T00:34:04.059Z,231.25
2023-05-10T00:35:04.082Z,224.66
2023-05-10T00:36:04.094Z,222.77
2023-05-10T00:37:04.163Z,221.03
2023-05-10T00:38:04.174Z,224.07
2023-05-10T00:39:04.172Z,222.45
2023-05-10T00:40:04.204Z,225.73
2023-05-10T00:41:04.265Z,229.94
2023-05-10T00:42:04.267Z,229.54
2023-05-10T00:43:04.312Z,229.70
2023-05-10T00:44:04.330Z,229.98
2023-05-10T00:45:04.360Z,232.35
2023-05-10T00:46:04.423Z,231.43
2023-05-10T00:47:04.426Z,233.51
2023-05-10T00:48:04.531Z,234.29
2023-05-10T00:49:04.491Z,232.77
2023-05-10T00:50:04.518Z,229.00
2023-05-10T00:51:04.560Z,227.27
2023-05-10T00:52:04.592Z,228.18
2023-05-10T00:53:04.684Z,231.21
2023-05-10T00:54:04.621Z,232.40
2023-05-10T00:55:04.701Z,235.35
2023-05-10T00:56:04.721Z,236.41
2023-05-10T00:57:04.760Z,234.83
2023-05-10T00:58:04.803Z,233.56
2023-05-10T00:59:04.836Z,232.40
2023-05-10T01:00:04.821Z,230.86
2023-05-10T01:01:04.878Z,227.84
2023-05-10T01:02:04.928Z,227.98
2023-05-10T01:03:05.020Z,230.79
2023-05-10T01:04:04.960Z,233.26
2023-05-10T01:05:05.022Z,232.84
2023-05-10T01:06:05.035Z,234.53
2023-05-10T01:07:05.034Z,238.97
2023-05-10T01:08:05.069Z,242.63
2023-05-10T01:09:05.128Z,249.16
2023-05-10T01:10:05.138Z,250.59
2023-05-10T01:11:05.194Z,240.36
2023-05-10T01:12:05.268Z,233.69
2023-05-10T01:13:05.337Z,235.30
2023-05-10T01:14:05.266Z,239.23
2023-05-10T01:15:05.295Z,237.77
2023-05-10T01:16:05.438Z,239.00
2023-05-10T01:17:05.332Z,239.90
2023-05-10T01:18:05.314Z,243.72
2023-05-10T01:19:05.354Z,247.36
2023-05-10T01:20:05.379Z,245.04
2023-05-10T01:21:05.396Z,245.21
2023-05-10T01:22:05.412Z,239.25
2023-05-10T01:23:05.439Z,239.48
2023-05-10T01:24:05.493Z,234.79
2023-05-10T01:25:05.507Z,234.88
2023-05-10T01:26:05.489Z,236.94
2023-05-10T01:27:05.502Z,235.58
2023-05-10T01:28:05.552Z,233.13
2023-05-10T01:29:05.555Z,230.62
2023-05-10T01:30:14.763Z,230.68
2023-05-10T01:31:06.584Z,230.71
2023-05-10T01:32:05.558Z,231.44
2023-05-10T01:33:05.581Z,233.62
2023-05-10T01:34:05.562Z,236.35
2023-05-10T01:35:05.555Z,239.15
2023-05-10T01:36:05.532Z,240.76
2023-05-10T01:37:05.536Z,246.48
2023-05-10T01:38:05.529Z,249.27
2023-05-10T01:39:05.497Z,250.00
2023-05-10T01:40:05.536Z,249.76
2023-05-10T01:41:05.489Z,247.55
2023-05-10T01:42:05.508Z,241.79
2023-05-10T01:43:05.499Z,240.13
2023-05-10T01:44:05.567Z,236.58
2023-05-10T01:45:05.618Z,232.76
2023-05-10T01:46:05.645Z,235.65
2023-05-10T01:47:05.666Z,237.73
2023-05-10T01:48:05.724Z,241.61
2023-05-10T01:49:05.697Z,243.34
2023-05-10T01:50:05.736Z,247.76
2023-05-10T01:51:05.752Z,249.93
2023-05-10T01:52:05.817Z,248.18
2023-05-10T01:53:05.805Z,248.27
2023-05-10T01:54:05.792Z,249.64
2023-05-10T01:55:05.855Z,250.28
2023-05-10T01:56:05.887Z,249.74
2023-05-10T01:57:05.895Z,249.97
2023-05-10T01:58:05.942Z,249.71
2023-05-10T01:59:05.985Z,249.91
2023-05-10T02:00:06.011Z,246.25
2023-05-10T02:01:06.139Z,245.14
2023-05-10T02:02:06.090Z,244.29
2023-05-10T02:03:06.220Z,241.42
2023-05-10T02:04:06.253Z,238.33
2023-05-10T02:05:06.198Z,237.10
2023-05-10T02:06:06.191Z,237.24
2023-05-10T02:07:06.219Z,237.90
2023-05-10T02:08:06.267Z,236.95
2023-05-10T02:09:06.271Z,231.72
2023-05-10T02:10:06.333Z,228.84
2023-05-10T02:11:06.346Z,230.68
2023-05-10T02:12:06.395Z,233.52
2023-05-10T02:13:06.477Z,235.94
2023-05-10T02:14:06.424Z,233.42
2023-05-10T02:15:06.468Z,233.55
2023-05-10T02:16:06.577Z,231.52
2023-05-10T02:17:06.540Z,231.15
2023-05-10T02:18:06.613Z,229.89
2023-05-10T02:19:06.590Z,228.90
2023-05-10T02:20:06.582Z,225.50
2023-05-10T02:21:06.669Z,222.75
2023-05-10T02:22:06.638Z,222.68
2023-05-10T02:23:06.725Z,222.23
2023-05-10T02:24:06.674Z,221.80
2023-05-10T02:25:06.719Z,221.76
2023-05-10T02:26:06.840Z,221.29
2023-05-10T02:27:06.805Z,221.25
2023-05-10T02:28:06.871Z,224.69
2023-05-10T02:29:06.848Z,227.22
2023-05-10T02:30:06.893Z,227.52
2023-05-10T02:31:06.905Z,224.79
2023-05-10T02:32:06.964Z,221.85
2023-05-10T02:33:07.025Z,221.49
2023-05-10T02:34:06.994Z,220.56
2023-05-10T02:35:07.018Z,219.94
2023-05-10T02:36:07.064Z,219.98
2023-05-10T02:37:07.065Z,218.15
2023-05-10T02:38:07.108Z,220.38
2023-05-10T02:39:07.131Z,222.46
2023-05-10T02:40:07.198Z,226.71
2023-05-10T02:41:07.201Z,229.00
2023-05-10T02:42:07.212Z,227.09
2023-05-10T02:43:07.283Z,227.18
2023-05-10T02:44:07.284Z,227.73
2023-05-10T02:45:07.360Z,227.15
2023-05-10T02:46:07.397Z,227.11
2023-05-10T02:47:07.418Z,228.28
2023-05-10T02:48:07.502Z,229.54
2023-05-10T02:49:07.446Z,228.98
2023-05-10T02:50:07.521Z,229.64
2023-05-10T02:51:07.502Z,231.02
2023-05-10T02:52:07.599Z,231.92
2023-05-10T02:53:07.580Z,232.38
2023-05-10T02:54:07.531Z,233.13
2023-05-10T02:55:07.552Z,231.54
2023-05-10T02:56:07.599Z,227.55
2023-05-10T02:57:07.672Z,225.52
2023-05-10T02:58:07.717Z,225.28
2023-05-10T02:59:07.716Z,228.55
2023-05-10T03:00:07.737Z,233.68
2023-05-10T03:01:07.811Z,235.04
2023-05-10T03:02:07.778Z,233.12
2023-05-10T03:03:07.850Z,232.73
2023-05-10T03:04:07.836Z,232.50
2023-05-10T03:05:07.873Z,231.51
2023-05-10T03:06:07.877Z,232.88
2023-05-10T03:07:07.925Z,232.95
2023-05-10T03:08:07.927Z,232.37
2023-05-10T03:09:07.960Z,231.38
2023-05-10T03:10:07.995Z,230.83
2023-05-10T03:11:08.005Z,230.17
2023-05-10T03:12:08.059Z,230.48
2023-05-10T03:13:08.133Z,229.88
2023-05-10T03:14:08.136Z,229.54
2023-05-10T03:15:08.151Z,231.79
2023-05-10T03:16:08.225Z,234.91
2023-05-10T03:17:08.190Z,234.28
2023-05-10T03:18:08.189Z,234.11
2023-05-10T03:19:08.226Z,233.13
2023-05-10T03:20:08.269Z,231.90
2023-05-10T03:21:08.320Z,233.37
2023-05-10T03:22:08.372Z,233.50
2023-05-10T03:23:08.397Z,228.10
2023-05-10T03:24:08.420Z,225.14
2023-05-10T03:25:08.438Z,225.70
2023-05-10T03:26:08.433Z,224.33
2023-05-10T03:27:08.511Z,224.18
2023-05-10T03:28:08.531Z,222.71
2023-05-10T03:29:08.538Z,222.74
2023-05-10T03:30:08.621Z,222.19
2023-05-10T03:31:08.636Z,217.31
2023-05-10T03:32:08.616Z,212.70
2023-05-10T03:33:08.696Z,212.28
2023-05-10T03:34:08.708Z,213.57
2023-05-10T03:35:08.802Z,216.74
2023-05-10T03:36:08.800Z,217.61
2023-05-10T03:37:08.835Z,218.60
2023-05-10T03:38:08.847Z,219.06
2023-05-10T03:39:08.893Z,216.19
2023-05-10T03:40:08.902Z,212.77
2023-05-10T03:41:08.912Z,212.28
2023-05-10T03:42:08.950Z,214.47
2023-05-10T03:43:08.953Z,216.60
2023-05-10T03:44:09.084Z,215.27
2023-05-10T03:45:09.058Z,215.77
2023-05-10T03:46:09.103Z,219.82
2023-05-10T03:47:09.209Z,225.10
2023-05-10T03:48:09.136Z,227.31
2023-05-10T03:49:09.119Z,227.53
2023-05-10T03:50:09.170Z,227.52
2023-05-10T03:51:09.245Z,222.63
2023-05-10T03:52:09.312Z,220.95
2023-05-10T03:53:09.288Z,222.32
2023-05-10T03:54:09.316Z,218.99
2023-05-10T03:55:09.347Z,217.42
2023-05-10T03:56:09.406Z,220.65
2023-05-10T03:57:09.352Z,220.36
2023-05-10T03:58:09.422Z,220.86
2023-05-10T03:59:09.432Z,223.29
2023-05-10T04:00:09.461Z,223.51
2023-05-10T04:01:09.542Z,221.90
2023-05-10T04:02:09.577Z,217.95
2023-05-10T04:03:09.669Z,213.86
2023-05-10T04:04:09.658Z,208.57
2023-05-10T04:05:09.682Z,214.67
2023-05-10T04:06:09.690Z,221.70
2023-05-10T04:07:09.733Z,226.69
2023-05-10T04:08:09.764Z,222.14
2023-05-10T04:09:09.754Z,227.83
2023-05-10T04:10:09.814Z,235.35
2023-05-10T04:11:09.807Z,236.98
2023-05-10T04:12:11.112Z,242.05
2023-05-10T04:13:09.853Z,246.88
2023-05-10T04:14:09.885Z,244.61
2023-05-10T04:15:09.854Z,248.14
2023-05-10T04:16:09.952Z,250.00
2023-05-10T04:17:09.943Z,250.04
2023-05-10T04:18:09.949Z,250.00
2023-05-10T04:19:09.970Z,250.00
2023-05-10T04:20:09.976Z,248.03
2023-05-10T04:21:10.019Z,247.65
2023-05-10T04:22:10.021Z,250.31
2023-05-10T04:23:10.097Z,247.37
2023-05-10T04:24:10.093Z,249.23
2023-05-10T04:25:10.080Z,249.48
2023-05-10T04:26:10.153Z,245.62
2023-05-10T04:27:10.157Z,238.77
2023-05-10T04:28:10.235Z,224.14
2023-05-10T04:29:10.297Z,219.82
2023-05-10T04:30:10.292Z,226.01
2023-05-10T04:31:10.375Z,231.51
2023-05-10T04:32:10.369Z,236.85
2023-05-10T04:33:10.485Z,241.21
2023-05-10T04:34:10.480Z,244.76
2023-05-10T04:35:10.494Z,245.13
2023-05-10T04:36:10.534Z,246.58
2023-05-10T04:37:10.540Z,244.62
2023-05-10T04:38:10.568Z,242.91
2023-05-10T04:39:10.646Z,235.84
2023-05-10T04:40:10.688Z,234.62
2023-05-10T04:41:10.689Z,224.84
2023-05-10T04:42:10.744Z,209.58
2023-05-10T04:43:10.737Z,213.61
2023-05-10T04:44:10.741Z,221.66
2023-05-10T04:45:10.787Z,230.05
2023-05-10T04:46:10.863Z,227.42
2023-05-10T04:47:12.631Z,222.90
2023-05-10T04:48:10.913Z,223.22
2023-05-10T04:49:10.929Z,225.45
2023-05-10T04:50:10.930Z,221.84
2023-05-10T04:51:10.991Z,219.47
2023-05-10T04:52:10.968Z,217.35
2023-05-10T04:53:11.057Z,222.26
2023-05-10T04:54:11.056Z,228.60
2023-05-10T04:55:11.113Z,228.98
2023-05-10T04:56:11.123Z,225.64
2023-05-10T04:57:11.121Z,211.79
2023-05-10T04:58:11.165Z,206.04
2023-05-10T04:59:11.922Z,208.36
2023-05-10T05:00:11.198Z,206.16
2023-05-10T05:01:11.275Z,204.25
2023-05-10T05:02:11.264Z,206.46
2023-05-10T05:03:11.342Z,215.37
2023-05-10T05:04:11.314Z,216.88
2023-05-10T05:05:11.314Z,222.16
2023-05-10T05:06:11.439Z,224.20
2023-05-10T05:07:11.395Z,220.90
2023-05-10T05:08:11.441Z,221.86
2023-05-10T05:09:11.453Z,227.33
2023-05-10T05:10:12.433Z,234.62
2023-05-10T05:11:11.455Z,236.43
2023-05-10T05:12:11.517Z,233.34
2023-05-10T05:13:11.571Z,235.26
2023-05-10T05:14:11.536Z,235.19
2023-05-10T05:15:11.575Z,237.51
2023-05-10T05:16:11.630Z,239.06
2023-05-10T05:17:11.618Z,236.57
2023-05-10T05:18:11.697Z,235.11
2023-05-10T05:19:11.679Z,236.78
2023-05-10T05:20:11.716Z,237.65
2023-05-10T05:21:11.744Z,235.79
2023-05-10T05:22:11.804Z,226.31
2023-05-10T05:23:11.813Z,205.63
2023-05-10T05:24:11.838Z,203.48
2023-05-10T05:25:11.886Z,199.82
2023-05-10T05:26:11.910Z,193.36
2023-05-10T05:27:11.929Z,189.28
2023-05-10T05:28:11.972Z,180.45
2023-05-10T05:29:11.999Z,182.87
2023-05-10T05:30:12.072Z,187.66
2023-05-10T05:31:12.082Z,188.75
2023-05-10T05:32:12.194Z,188.02
2023-05-10T05:33:12.172Z,187.11
2023-05-10T05:34:12.124Z,183.08
2023-05-10T05:35:12.239Z,185.75
2023-05-10T05:36:12.261Z,190.53
2023-05-10T05:37:12.220Z,194.85
2023-05-10T05:38:12.325Z,201.31
2023-05-10T05:39:12.311Z,203.25
2023-05-10T05:40:12.282Z,190.26
2023-05-10T05:41:12.321Z,180.87
2023-05-10T05:42:12.377Z,185.27
2023-05-10T05:43:12.436Z,188.47
2023-05-10T05:44:12.447Z,184.94
2023-05-10T05:45:12.464Z,179.25
2023-05-10T05:46:12.542Z,171.65
2023-05-10T05:47:12.493Z,168.68
2023-05-10T05:48:12.537Z,184.45
2023-05-10T05:49:12.576Z,192.12
2023-05-10T05:50:12.690Z,193.64
2023-05-10T05:51:12.646Z,190.89
2023-05-10T05:52:12.702Z,187.52
2023-05-10T05:53:12.697Z,184.89
2023-05-10T05:54:12.714Z,188.11
2023-05-10T05:55:12.736Z,181.51
2023-05-10T05:56:12.796Z,174.66
2023-05-10T05:57:12.793Z,167.89
2023-05-10T05:58:12.859Z,168.87
2023-05-10T05:59:12.894Z,163.64
2023-05-10T06:00:12.886Z,166.53
2023-05-10T06:01:12.957Z,171.66
2023-05-10T06:02:12.994Z,167.47
2023-05-10T06:03:13.105Z,168.39
2023-05-10T06:04:13.099Z,173.37
2023-05-10T06:05:13.047Z,177.04
2023-05-10T06:06:13.160Z,180.33
2023-05-10T06:07:13.219Z,183.35
2023-05-10T06:08:13.244Z,184.88
2023-05-10T06:09:13.238Z,185.17
2023-05-10T06:10:13.235Z,186.16
2023-05-10T06:11:13.477Z,189.84
2023-05-10T06:12:13.280Z,187.09
2023-05-10T06:13:13.317Z,182.17
2023-05-10T06:14:13.314Z,182.04
2023-05-10T06:15:13.438Z,186.20
2023-05-10T06:16:13.433Z,184.26
2023-05-10T06:17:13.437Z,182.66
2023-05-10T06:18:13.524Z,177.28
2023-05-10T06:19:13.533Z,178.37
2023-05-10T06:20:13.592Z,177.57
2023-05-10T06:21:13.595Z,183.44
2023-05-10T06:22:13.597Z,192.20
2023-05-10T06:23:13.672Z,192.07
2023-05-10T06:24:13.685Z,195.66
2023-05-10T06:25:13.687Z,198.66
2023-05-10T06:26:13.737Z,203.97
2023-05-10T06:27:13.773Z,208.55
2023-05-10T06:28:13.951Z,210.76
2023-05-10T06:29:13.823Z,209.32
2023-05-10T06:30:13.891Z,214.76
2023-05-10T06:31:13.925Z,221.44
2023-05-10T06:32:13.920Z,226.19
2023-05-10T06:33:13.987Z,225.95
2023-05-10T06:34:13.992Z,225.02
2023-05-10T06:35:14.121Z,222.45
2023-05-10T06:36:14.037Z,221.31
2023-05-10T06:37:14.107Z,225.72
2023-05-10T06:38:14.122Z,219.89
2023-05-10T06:39:14.118Z,213.06
2023-05-10T06:40:14.149Z,197.17
2023-05-10T06:41:14.175Z,187.05
2023-05-10T06:42:14.223Z,191.13
2023-05-10T06:43:14.240Z,197.25
2023-05-10T06:44:14.486Z,199.90
2023-05-10T06:45:14.448Z,201.55
2023-05-10T06:46:14.368Z,203.39
2023-05-10T06:47:14.415Z,206.40
2023-05-10T06:48:14.434Z,199.21
2023-05-10T06:49:14.504Z,194.72
2023-05-10T06:50:14.522Z,196.88
2023-05-10T06:51:14.501Z,201.39
2023-05-10T06:52:14.619Z,203.70
2023-05-10T06:53:14.615Z,204.19
2023-05-10T06:54:14.657Z,189.56
2023-05-10T06:55:14.808Z,183.67
2023-05-10T06:56:14.732Z,186.48
2023-05-10T06:57:27.694Z,194.69
2023-05-10T06:58:15.739Z,194.98
2023-05-10T06:59:14.784Z,194.89
2023-05-10T07:00:14.794Z,192.38
2023-05-10T07:01:14.933Z,194.78
2023-05-10T07:02:14.818Z,203.80
2023-05-10T07:03:14.737Z,207.43
2023-05-10T07:04:14.812Z,208.18
2023-05-10T07:05:14.694Z,207.74
2023-05-10T07:06:29.400Z,201.84
2023-05-10T07:07:15.670Z,201.91
2023-05-10T07:08:14.631Z,201.12
2023-05-10T07:09:14.949Z,197.32
2023-05-10T07:10:14.672Z,193.86
2023-05-10T07:11:14.627Z,196.93
2023-05-10T07:12:15.610Z,202.02
2023-05-10T07:13:14.805Z,203.01
2023-05-10T07:14:14.613Z,202.85
2023-05-10T07:15:15.101Z,206.17
2023-05-10T07:16:14.616Z,209.47
2023-05-10T07:17:14.616Z,211.69
2023-05-10T07:18:14.602Z,213.61
2023-05-10T07:19:14.632Z,216.97
2023-05-10T07:20:14.629Z,220.60
2023-05-10T07:21:14.709Z,223.36
2023-05-10T07:22:14.700Z,217.57
2023-05-10T07:23:14.701Z,217.05
2023-05-10T07:24:14.749Z,218.16
2023-05-10T07:25:14.912Z,219.09
2023-05-10T07:26:14.880Z,220.93
2023-05-10T07:27:14.849Z,221.49
2023-05-10T07:28:14.878Z,218.71
2023-05-10T07:29:14.919Z,217.99
2023-05-10T07:30:14.958Z,215.94
2023-05-10T07:31:14.991Z,216.08
2023-05-10T07:32:15.027Z,215.67
2023-05-10T07:33:15.071Z,216.90
2023-05-10T07:34:15.074Z,213.61
2023-05-10T07:35:15.704Z,216.39
2023-05-10T07:36:15.494Z,220.45
2023-05-10T07:37:15.168Z,225.89
2023-05-10T07:38:15.319Z,225.09
2023-05-10T07:39:21.229Z,220.90
2023-05-10T07:40:16.196Z,217.52
2023-05-10T07:41:15.464Z,212.06
2023-05-10T07:42:15.160Z,208.35
2023-05-10T07:43:15.149Z,214.31
2023-05-10T07:44:15.139Z,214.02
2023-05-10T07:45:15.247Z,211.10
2023-05-10T07:46:15.194Z,209.49
2023-05-10T07:47:15.166Z,208.92
2023-05-10T07:48:15.113Z,209.97
2023-05-10T07:49:15.101Z,210.68
2023-05-10T07:50:15.109Z,216.65
2023-05-10T07:51:15.084Z,222.99
2023-05-10T07:52:15.084Z,226.13
2023-05-10T07:53:15.101Z,225.08
2023-05-10T07:54:15.126Z,227.49
2023-05-10T07:55:15.279Z,227.42
2023-05-10T07:56:15.157Z,225.14
2023-05-10T07:57:15.216Z,219.96
2023-05-10T07:58:15.254Z,226.25
2023-05-10T07:59:15.281Z,225.67
2023-05-10T08:00:15.346Z,224.69
2023-05-10T08:01:15.345Z,223.27
2023-05-10T08:02:15.432Z,228.02
2023-05-10T08:03:15.619Z,229.52
2023-05-10T08:04:15.475Z,230.46
2023-05-10T08:05:15.842Z,235.96
2023-05-10T08:06:15.454Z,234.99
2023-05-10T08:07:15.490Z,234.21
2023-05-10T08:08:15.496Z,234.27
2023-05-10T08:09:15.543Z,234.45
2023-05-10T08:10:15.553Z,231.45
2023-05-10T08:11:15.585Z,224.88
2023-05-10T08:12:15.646Z,222.53
2023-05-10T08:13:16.015Z,223.25
2023-05-10T08:14:15.757Z,219.40
2023-05-10T08:15:16.031Z,215.18
2023-05-10T08:16:15.847Z,217.14
2023-05-10T08:17:16.217Z,221.87
2023-05-10T08:18:16.026Z,224.27
2023-05-10T08:19:15.864Z,225.46
2023-05-10T08:20:15.902Z,220.95
2023-05-10T08:21:15.993Z,217.09
2023-05-10T08:22:15.972Z,213.20
2023-05-10T08:23:16.002Z,208.45
2023-05-10T08:24:16.036Z,211.90
2023-05-10T08:25:16.191Z,223.11
2023-05-10T08:26:16.054Z,222.51
2023-05-10T08:27:16.074Z,228.99
2023-05-10T08:28:16.084Z,233.19
2023-05-10T08:29:16.081Z,231.84
2023-05-10T08:30:16.149Z,227.86
2023-05-10T08:31:16.168Z,222.77
2023-05-10T08:32:16.197Z,216.69
2023-05-10T08:33:16.298Z,212.72
2023-05-10T08:34:16.299Z,214.71
2023-05-10T08:35:16.580Z,214.42
2023-05-10T08:36:16.382Z,216.84
2023-05-10T08:37:16.416Z,222.68
2023-05-10T08:38:16.433Z,216.45
2023-05-10T08:39:29.274Z,209.68
2023-05-10T08:40:17.476Z,207.66
2023-05-10T08:41:16.440Z,209.44
2023-05-10T08:42:16.466Z,210.11
2023-05-10T08:43:16.465Z,208.14
2023-05-10T08:44:16.417Z,210.30
2023-05-10T08:45:16.662Z,213.94
2023-05-10T08:46:16.451Z,220.16
2023-05-10T08:47:16.438Z,214.69
2023-05-10T08:48:16.435Z,212.80
2023-05-10T08:49:16.406Z,212.67
2023-05-10T08:50:16.410Z,213.04
2023-05-10T08:51:16.514Z,206.91
2023-05-10T08:52:16.398Z,207.43
2023-05-10T08:53:16.403Z,202.08
2023-05-10T08:54:16.357Z,205.87
2023-05-10T08:55:16.559Z,202.90
2023-05-10T08:56:16.428Z,206.92
2023-05-10T08:57:16.433Z,203.77
2023-05-10T08:58:16.575Z,204.26
2023-05-10T08:59:16.480Z,197.90
2023-05-10T09:00:16.496Z,192.18
2023-05-10T09:01:16.555Z,197.14
2023-05-10T09:02:18.706Z,196.22
2023-05-10T09:03:16.654Z,189.70
2023-05-10T09:04:16.675Z,189.90
2023-05-10T09:05:16.970Z,192.28
2023-05-10T09:06:16.790Z,198.78
2023-05-10T09:07:16.752Z,204.07
2023-05-10T09:08:16.825Z,202.80
2023-05-10T09:09:16.875Z,202.34
2023-05-10T09:10:16.913Z,201.00
2023-05-10T09:11:16.975Z,196.79
2023-05-10T09:12:16.989Z,202.02
2023-05-10T09:13:17.040Z,198.45
2023-05-10T09:14:17.108Z,196.24
2023-05-10T09:15:17.372Z,197.91
2023-05-10T09:16:21.584Z,190.17
2023-05-10T09:17:18.219Z,190.18
2023-05-10T09:18:17.236Z,190.22
2023-05-10T09:19:17.173Z,185.79
2023-05-10T09:20:17.186Z,179.38
2023-05-10T09:21:17.162Z,179.56
2023-05-10T09:22:17.137Z,182.43
2023-05-10T09:23:17.106Z,179.06
2023-05-10T09:24:17.110Z,172.05
2023-05-10T09:25:17.321Z,161.98
2023-05-10T09:26:17.244Z,160.16
2023-05-10T09:27:17.499Z,159.95
2023-05-10T09:28:17.073Z,159.62
2023-05-10T09:29:17.694Z,166.58
2023-05-10T09:30:17.078Z,172.16
2023-05-10T09:31:17.125Z,171.79
2023-05-10T09:32:17.056Z,182.52
2023-05-10T09:33:17.536Z,185.24
2023-05-10T09:34:17.050Z,188.27
2023-05-10T09:35:17.305Z,189.13
2023-05-10T09:36:17.091Z,187.54
2023-05-10T09:37:17.078Z,188.77
2023-05-10T09:38:17.124Z,190.60
2023-05-10T09:39:17.514Z,190.09
2023-05-10T09:40:17.178Z,180.68
2023-05-10T09:41:17.166Z,171.10
2023-05-10T09:42:17.222Z,165.21
2023-05-10T09:43:17.224Z,174.70
2023-05-10T09:44:17.252Z,168.80
2023-05-10T09:45:17.449Z,171.37
2023-05-10T09:46:17.377Z,177.19
2023-05-10T09:47:17.362Z,178.13
2023-05-10T09:48:17.417Z,186.93
2023-05-10T09:49:17.484Z,180.22
2023-05-10T09:50:17.547Z,163.20
2023-05-10T09:51:17.501Z,157.87
2023-05-10T09:52:17.533Z,158.08
2023-05-10T09:53:17.597Z,163.50
2023-05-10T09:54:17.711Z,163.52
2023-05-10T09:55:17.740Z,163.00
2023-05-10T09:56:17.717Z,162.62
2023-05-10T09:57:18.044Z,166.43
2023-05-10T09:58:17.776Z,168.30
2023-05-10T09:59:17.829Z,164.02
2023-05-10T10:00:17.843Z,163.93
2023-05-10T10:01:17.918Z,162.35
2023-05-10T10:02:17.849Z,159.71
2023-05-10T10:03:17.943Z,162.68
2023-05-10T10:04:17.913Z,155.65
2023-05-10T10:05:18.105Z,147.04
2023-05-10T10:06:29.104Z,149.15
2023-05-10T10:07:18.913Z,149.45
2023-05-10T10:08:17.947Z,151.45
2023-05-10T10:09:17.895Z,153.32
2023-05-10T10:10:17.905Z,156.08
2023-05-10T10:11:17.929Z,161.53
2023-05-10T10:12:17.887Z,176.53
2023-05-10T10:13:17.929Z,182.87
2023-05-10T10:14:18.090Z,184.88
2023-05-10T10:15:18.306Z,177.67
2023-05-10T10:16:17.909Z,163.38
2023-05-10T10:17:17.846Z,153.00
2023-05-10T10:18:17.897Z,150.92
2023-05-10T10:19:17.998Z,155.63
2023-05-10T10:20:18.051Z,162.59
2023-05-10T10:21:17.898Z,168.79
2023-05-10T10:22:18.008Z,170.69
2023-05-10T10:23:17.990Z,165.36
2023-05-10T10:24:17.857Z,167.44
2023-05-10T10:25:18.281Z,171.07
2023-05-10T10:26:18.074Z,168.13
2023-05-10T10:27:17.949Z,155.96
2023-05-10T10:28:17.991Z,144.54
2023-05-10T10:29:18.030Z,127.68
2023-05-10T10:30:18.028Z,119.38
2023-05-10T10:31:18.098Z,110.17
2023-05-10T10:32:18.160Z,105.75
2023-05-10T10:33:27.995Z,105.48
2023-05-10T10:34:19.215Z,105.64
2023-05-10T10:35:18.719Z,107.07
2023-05-10T10:36:18.123Z,112.73
2023-05-10T10:37:18.122Z,128.41
2023-05-10T10:38:18.113Z,152.67
2023-05-10T10:39:18.153Z,159.28
2023-05-10T10:40:18.110Z,160.38
2023-05-10T10:41:18.105Z,146.43
2023-05-10T10:42:18.082Z,134.03
2023-05-10T10:43:18.080Z,138.71
2023-05-10T10:44:18.561Z,143.72
2023-05-10T10:45:18.376Z,146.98
2023-05-10T10:46:18.243Z,143.30
2023-05-10T10:47:18.528Z,129.75
2023-05-10T10:48:18.058Z,119.04
2023-05-10T10:49:18.063Z,120.09
2023-05-10T10:50:18.030Z,115.56
2023-05-10T10:51:18.010Z,106.42
2023-05-10T10:52:18.019Z,111.67
2023-05-10T10:53:18.010Z,105.88
2023-05-10T10:54:18.047Z,101.24
2023-05-10T10:55:18.254Z,87.78
2023-05-10T10:56:18.091Z,73.07
2023-05-10T10:57:18.061Z,64.13
2023-05-10T10:58:18.070Z,60.47
2023-05-10T10:59:18.116Z,74.57
2023-05-10T11:00:18.126Z,80.04
2023-05-10T11:01:18.252Z,71.43
2023-05-10T11:02:18.234Z,60.87
2023-05-10T11:03:18.278Z,58.82
2023-05-10T11:04:18.302Z,63.56
2023-05-10T11:05:18.666Z,69.28
2023-05-10T11:06:18.286Z,76.50
2023-05-10T11:07:18.296Z,82.81
2023-05-10T11:08:18.577Z,96.47
2023-05-10T11:09:18.386Z,113.15
2023-05-10T11:10:18.395Z,121.90
2023-05-10T11:11:18.429Z,113.02
2023-05-10T11:12:18.433Z,102.93
2023-05-10T11:13:18.437Z,97.65
2023-05-10T11:14:18.525Z,100.79
2023-05-10T11:15:18.615Z,111.46
2023-05-10T11:16:18.663Z,111.51
2023-05-10T11:17:19.048Z,112.83
2023-05-10T11:18:18.776Z,103.79
2023-05-10T11:19:18.761Z,100.98
2023-05-10T11:20:18.887Z,108.12
2023-05-10T11:21:18.817Z,101.75
2023-05-10T11:22:18.823Z,102.95
2023-05-10T11:23:18.861Z,104.74
2023-05-10T11:24:18.880Z,123.53
2023-05-10T11:25:18.931Z,121.27
2023-05-10T11:26:18.964Z,99.83
2023-05-10T11:27:19.055Z,99.00
2023-05-10T11:28:19.069Z,114.57
2023-05-10T11:29:19.117Z,98.20
2023-05-10T11:30:19.327Z,85.07
2023-05-10T11:31:19.201Z,87.73
2023-05-10T11:32:19.252Z,87.53
2023-05-10T11:33:19.263Z,95.65
2023-05-10T11:34:19.292Z,111.48
2023-05-10T11:35:19.361Z,119.24
2023-05-10T11:36:19.365Z,115.94
2023-05-10T11:37:19.432Z,113.83
2023-05-10T11:38:19.456Z,113.49
2023-05-10T11:39:19.442Z,113.95
2023-05-10T11:40:19.676Z,123.28
2023-05-10T11:41:19.542Z,120.79
2023-05-10T11:42:19.580Z,87.71
2023-05-10T11:43:19.636Z,73.20
2023-05-10T11:44:19.643Z,63.04
2023-05-10T11:45:19.683Z,73.01
2023-05-10T11:46:19.770Z,83.40
2023-05-10T11:47:19.751Z,72.36
2023-05-10T11:48:19.804Z,58.60
2023-05-10T11:49:19.868Z,55.49
2023-05-10T11:50:20.101Z,42.90
2023-05-10T11:51:19.949Z,29.50
2023-05-10T11:52:19.962Z,41.83
2023-05-10T11:53:20.053Z,45.71
2023-05-10T11:54:20.076Z,47.97
2023-05-10T11:55:20.114Z,44.65
2023-05-10T11:56:20.080Z,40.66
2023-05-10T11:57:20.135Z,40.01
2023-05-10T11:58:20.174Z,44.83
2023-05-10T11:59:20.195Z,37.27
2023-05-10T12:00:20.385Z,30.39
2023-05-10T12:01:20.309Z,37.08
2023-05-10T12:02:20.350Z,40.41
2023-05-10T12:03:20.437Z,46.66
2023-05-10T12:04:20.541Z,44.63
2023-05-10T12:05:20.499Z,60.08
2023-05-10T12:06:20.485Z,61.54
2023-05-10T12:07:20.532Z,66.65
2023-05-10T12:08:20.532Z,70.40
2023-05-10T12:09:31.516Z,64.02
2023-05-10T12:10:22.054Z,64.33
2023-05-10T12:11:20.561Z,67.36
2023-05-10T12:12:20.568Z,77.52
2023-05-10T12:13:20.588Z,93.29
2023-05-10T12:14:20.551Z,120.17
2023-05-10T12:15:20.533Z,121.05
2023-05-10T12:16:20.559Z,113.72
2023-05-10T12:17:20.492Z,105.08
2023-05-10T12:18:20.520Z,98.64
2023-05-10T12:19:20.504Z,96.44
2023-05-10T12:20:20.807Z,103.32
2023-05-10T12:21:20.588Z,126.11
2023-05-10T12:22:20.601Z,133.23
2023-05-10T12:23:20.627Z,141.96
2023-05-10T12:24:20.628Z,147.47
2023-05-10T12:25:20.638Z,158.03
2023-05-10T12:26:20.658Z,161.20
2023-05-10T12:27:20.668Z,156.79
2023-05-10T12:28:20.842Z,160.47
2023-05-10T12:29:20.766Z,168.21
2023-05-10T12:30:20.774Z,167.08